Time;durP1;ratioP1;P1;durP2;ratioP2;P2;SDS_P1;SDS_P2;PMS_P1;PMS_P2;Temp;Humidity;BMP_temperature;BMP_pressure;BME280_temperature;BME280_humidity;BME280_pressure;Samples;Min_cycle;Max_cycle;Signal;HPM_P1;HPM_P2
2022/08/17 00:00:13;;;;;;;7.47;5.35;;;22.00;77.20;;;;;;5018867;28;20156;-67
2022/08/17 00:02:58;;;;;;;7.70;4.97;;;22.00;77.20;;;;;;5027672;28;20080;-68
2022/08/17 00:05:24;;;;;;;8.57;5.57;;;21.90;77.00;;;;;;5000085;28;20056;-68
2022/08/17 00:07:50;;;;;;;9.90;5.72;;;21.90;77.40;;;;;;5021850;28;20137;-71
2022/08/17 00:10:16;;;;;;;8.02;5.50;;;21.80;77.80;;;;;;4997911;28;20065;-71
2022/08/17 00:12:42;;;;;;;7.35;4.95;;;21.80;77.90;;;;;;4993760;28;20046;-71
2022/08/17 00:15:08;;;;;;;9.30;5.20;;;21.80;77.30;;;;;;5015235;28;20099;-72
2022/08/17 00:17:34;;;;;;;8.68;5.30;;;21.80;78.20;;;;;;5010653;28;20040;-71
2022/08/17 00:20:00;;;;;;;7.97;5.43;;;21.70;77.30;;;;;;5015980;28;20413;-70
2022/08/17 00:22:26;;;;;;;7.82;4.88;;;21.70;76.80;;;;;;5006681;28;20057;-71
2022/08/17 00:24:51;;;;;;;10.10;4.75;;;21.70;76.00;;;;;;5024484;28;20053;-70
2022/08/17 00:27:17;;;;;;;8.02;5.53;;;21.70;75.80;;;;;;5064627;28;20432;-70
2022/08/17 00:29:44;;;;;;;9.65;5.15;;;21.70;76.30;;;;;;5022085;28;20156;-70
2022/08/17 00:32:11;;;;;;;8.63;4.93;;;21.70;76.60;;;;;;5017971;28;20050;-70
2022/08/17 00:34:37;;;;;;;10.30;5.28;;;21.70;76.20;;;;;;5013450;28;20463;-73
2022/08/17 00:37:03;;;;;;;7.85;4.85;;;21.60;76.80;;;;;;5000570;28;20053;-70
2022/08/17 00:39:29;;;;;;;9.80;5.03;;;21.50;77.00;;;;;;5027409;28;20049;-72
2022/08/17 00:41:55;;;;;;;9.27;5.15;;;21.50;78.50;;;;;;5015385;28;20123;-71
2022/08/17 00:44:20;;;;;;;11.20;5.35;;;21.40;78.40;;;;;;5033728;28;20057;-71
2022/08/17 00:46:46;;;;;;;10.25;5.55;;;21.30;78.80;;;;;;5011092;28;20134;-71
2022/08/17 00:49:12;;;;;;;11.63;5.53;;;21.30;78.50;;;;;;4995595;28;20108;-71
2022/08/17 00:51:45;;;;;;;6.28;5.20;;;21.30;78.50;;;;;;5022562;28;20051;-71
2022/08/17 00:54:38;;;;;;;8.90;5.15;;;21.30;79.10;;;;;;5016772;28;20088;-72
2022/08/17 00:57:08;;;;;;;7.72;5.50;;;21.40;78.80;;;;;;5034851;28;20053;-70
2022/08/17 00:59:37;;;;;;;7.28;5.30;;;21.30;78.70;;;;;;4995312;28;20136;-71
2022/08/17 01:02:03;;;;;;;7.78;5.05;;;21.20;79.00;;;;;;5029566;28;20048;-72
2022/08/17 01:04:29;;;;;;;6.72;5.20;;;21.10;78.30;;;;;;5025111;28;20038;-72
2022/08/17 01:06:55;;;;;;;9.32;5.35;;;21.20;78.40;;;;;;5014374;28;20133;-71
2022/08/17 01:09:21;;;;;;;9.30;5.10;;;21.10;78.50;;;;;;5018687;28;20053;-71
2022/08/17 01:11:51;;;;;;;7.72;5.47;;;21.10;78.00;;;;;;5035500;28;20079;-71
2022/08/17 01:14:21;;;;;;;8.05;4.75;;;21.10;78.30;;;;;;5000947;28;20073;-70
2022/08/17 01:16:48;;;;;;;12.40;5.40;;;21.00;78.40;;;;;;5018624;28;20049;-71
2022/08/17 01:19:22;;;;;;;10.18;5.45;;;21.00;78.30;;;;;;5017206;28;20075;-71
2022/08/17 01:21:49;;;;;;;6.72;5.32;;;21.00;77.60;;;;;;4989429;28;20374;-71
2022/08/17 01:24:15;;;;;;;9.55;5.75;;;21.00;77.70;;;;;;5042198;28;20041;-71
2022/08/17 01:26:41;;;;;;;9.85;5.25;;;20.90;77.30;;;;;;5022025;28;20048;-71
2022/08/17 01:29:07;;;;;;;6.43;5.55;;;20.90;76.90;;;;;;5017241;28;20075;-71
2022/08/17 01:31:35;;;;;;;9.63;5.57;;;20.90;77.00;;;;;;5016212;28;20072;-71
2022/08/17 01:34:03;;;;;;;8.70;5.05;;;20.90;76.80;;;;;;5017604;28;20053;-71
2022/08/17 01:36:29;;;;;;;9.10;5.30;;;20.90;76.40;;;;;;5020394;28;20049;-70
2022/08/17 01:38:55;;;;;;;9.48;5.57;;;21.00;76.10;;;;;;5001516;28;20052;-70
2022/08/17 01:41:20;;;;;;;8.40;5.50;;;20.90;75.90;;;;;;5017594;28;20050;-71
2022/08/17 01:43:51;;;;;;;8.80;5.60;;;20.90;76.50;;;;;;5003525;28;20498;-71
2022/08/17 01:46:28;;;;;;;11.98;6.07;;;20.80;77.80;;;;;;5015051;28;20357;-72
2022/08/17 01:48:55;;;;;;;7.03;5.00;;;20.70;78.40;;;;;;5043828;28;20174;-70
2022/08/17 01:51:21;;;;;;;7.03;5.03;;;20.60;78.60;;;;;;5037439;28;20048;-71
2022/08/17 01:53:49;;;;;;;9.55;5.43;;;20.60;78.70;;;;;;5009748;28;20048;-71
2022/08/17 01:56:17;;;;;;;6.30;5.18;;;20.70;78.40;;;;;;5016529;28;20044;-71
2022/08/17 01:58:43;;;;;;;7.88;5.05;;;20.70;78.90;;;;;;5012780;28;20156;-72
2022/08/17 02:01:09;;;;;;;7.50;5.93;;;20.60;78.90;;;;;;5031146;28;20051;-72
2022/08/17 02:03:35;;;;;;;8.95;5.65;;;20.60;79.40;;;;;;5022045;28;20037;-71
2022/08/17 02:06:01;;;;;;;9.07;5.38;;;20.60;78.50;;;;;;5048352;28;20053;-71
2022/08/17 02:08:27;;;;;;;7.22;4.97;;;20.60;79.40;;;;;;5015999;28;20046;-72
2022/08/17 02:10:53;;;;;;;7.85;5.55;;;20.60;78.90;;;;;;4985815;28;20064;-71
2022/08/17 02:13:19;;;;;;;10.73;5.25;;;20.60;78.70;;;;;;5021971;28;20061;-71
2022/08/17 02:15:45;;;;;;;11.95;5.72;;;20.50;79.30;;;;;;5032022;28;20481;-72
2022/08/17 02:18:11;;;;;;;9.00;5.35;;;20.50;79.30;;;;;;5005202;28;20509;-71
2022/08/17 02:20:37;;;;;;;9.75;5.22;;;20.60;78.70;;;;;;5028434;28;20041;-71
2022/08/17 02:23:03;;;;;;;11.40;5.75;;;20.60;78.70;;;;;;5011784;28;20041;-71
2022/08/17 02:25:30;;;;;;;8.07;5.53;;;20.60;79.60;;;;;;5011729;28;20045;-71
2022/08/17 02:27:56;;;;;;;11.40;6.25;;;20.50;79.60;;;;;;5017219;28;20040;-71
2022/08/17 02:30:22;;;;;;;7.97;5.60;;;20.50;79.10;;;;;;5028232;28;20422;-71
2022/08/17 02:32:48;;;;;;;8.02;5.90;;;20.40;78.60;;;;;;5053154;28;20128;-70
2022/08/17 02:35:14;;;;;;;8.73;5.90;;;20.40;78.90;;;;;;5024110;28;20038;-72
2022/08/17 02:37:42;;;;;;;8.38;5.55;;;20.40;79.00;;;;;;5009966;28;20038;-70
2022/08/17 02:40:09;;;;;;;8.73;5.55;;;20.40;78.70;;;;;;5020913;28;20053;-72
2022/08/17 02:42:37;;;;;;;9.77;5.53;;;20.40;78.40;;;;;;5029886;28;20056;-72
2022/08/17 02:45:04;;;;;;;9.07;5.13;;;20.40;78.60;;;;;;5018061;28;20038;-71
2022/08/17 02:47:30;;;;;;;6.72;5.38;;;20.40;78.60;;;;;;5011650;28;20341;-70
2022/08/17 02:49:56;;;;;;;8.27;5.63;;;20.40;78.50;;;;;;5020718;28;20075;-71
2022/08/17 02:52:22;;;;;;;6.60;5.85;;;20.40;78.00;;;;;;4991848;28;20073;-71
2022/08/17 02:54:48;;;;;;;9.68;5.57;;;20.40;77.70;;;;;;5002914;28;20107;-71
2022/08/17 02:57:14;;;;;;;7.40;5.63;;;20.30;78.00;;;;;;5027543;28;20569;-71
2022/08/17 02:59:40;;;;;;;10.57;5.78;;;20.20;78.70;;;;;;5035277;28;20048;-70
2022/08/17 03:02:06;;;;;;;7.00;5.47;;;20.20;78.50;;;;;;5011351;28;20071;-71
2022/08/17 03:04:32;;;;;;;7.57;5.97;;;20.00;78.50;;;;;;5028056;28;20103;-71
2022/08/17 03:06:58;;;;;;;8.20;5.93;;;20.00;78.80;;;;;;5023855;28;20053;-70
2022/08/17 03:09:24;;;;;;;9.23;6.07;;;20.10;79.20;;;;;;5003656;28;20053;-72
2022/08/17 03:11:50;;;;;;;10.02;5.75;;;20.00;79.40;;;;;;5017090;28;20046;-70
2022/08/17 03:14:17;;;;;;;7.47;5.47;;;20.00;79.30;;;;;;5027128;28;20057;-71
2022/08/17 03:16:43;;;;;;;6.68;5.65;;;19.90;78.60;;;;;;5016963;28;20498;-71
2022/08/17 03:19:09;;;;;;;6.70;5.13;;;19.90;78.30;;;;;;5015063;28;20049;-71
2022/08/17 03:21:34;;;;;;;6.75;5.05;;;19.90;78.30;;;;;;5021724;28;20486;-71
2022/08/17 03:24:00;;;;;;;7.30;5.72;;;19.90;79.10;;;;;;5032880;28;20651;-71
2022/08/17 03:26:26;;;;;;;6.18;4.82;;;19.90;79.00;;;;;;5039924;28;20065;-71
2022/08/17 03:28:52;;;;;;;8.85;5.63;;;19.90;79.00;;;;;;5047202;28;20515;-71
2022/08/17 03:31:20;;;;;;;7.28;5.93;;;20.00;79.00;;;;;;5023087;28;20049;-70
2022/08/17 03:33:46;;;;;;;10.40;6.03;;;19.90;79.20;;;;;;5023402;28;20535;-72
2022/08/17 03:36:12;;;;;;;9.57;5.63;;;19.90;79.00;;;;;;5023213;28;20052;-71
2022/08/17 03:38:37;;;;;;;10.27;5.55;;;19.80;78.80;;;;;;4992025;28;20049;-70
2022/08/17 03:41:04;;;;;;;8.05;5.78;;;19.80;78.80;;;;;;5036440;28;20057;-71
2022/08/17 03:43:31;;;;;;;8.02;5.25;;;19.80;78.80;;;;;;5017451;28;20099;-70
2022/08/17 03:57:12;;;;;;;8.38;5.45;;;19.70;80.20;;;;;;5013193;28;20052;-69
2022/08/17 03:59:39;;;;;;;7.47;5.53;;;19.70;81.10;;;;;;5009946;28;20060;-69
2022/08/17 04:02:10;;;;;;;10.77;6.20;;;19.70;82.10;;;;;;5015727;28;20057;-70
2022/08/17 04:04:36;;;;;;;10.18;6.82;;;19.70;82.20;;;;;;5024652;28;20033;-69
2022/08/17 04:07:02;;;;;;;10.52;5.95;;;19.70;82.60;;;;;;5009389;28;20108;-70
2022/08/17 04:09:27;;;;;;;9.45;5.90;;;19.60;82.60;;;;;;5020106;28;20049;-69
2022/08/17 04:11:53;;;;;;;8.18;6.25;;;19.60;82.90;;;;;;5008830;28;20042;-69
2022/08/17 04:14:19;;;;;;;7.65;6.53;;;19.60;83.10;;;;;;5013058;28;20100;-70
2022/08/17 04:16:45;;;;;;;8.15;6.03;;;19.60;83.10;;;;;;5013031;28;20050;-69
2022/08/17 04:19:10;;;;;;;6.80;6.10;;;19.60;83.40;;;;;;4998000;28;20069;-70
2022/08/17 04:21:36;;;;;;;8.38;6.32;;;19.50;83.40;;;;;;5016482;28;20045;-69
2022/08/17 04:24:02;;;;;;;8.23;6.97;;;19.40;84.10;;;;;;5012152;28;20046;-69
2022/08/17 04:26:28;;;;;;;9.77;6.07;;;19.40;83.50;;;;;;4999083;28;20061;-69
2022/08/17 04:28:54;;;;;;;9.30;6.60;;;19.40;82.60;;;;;;4997465;28;20382;-70
2022/08/17 04:31:20;;;;;;;8.73;6.07;;;19.50;82.10;;;;;;5011156;28;20052;-69
2022/08/17 04:33:45;;;;;;;6.93;6.20;;;19.50;82.30;;;;;;5017143;28;20049;-69
2022/08/17 04:36:13;;;;;;;12.07;6.00;;;19.50;81.90;;;;;;5044666;28;20050;-71
2022/08/17 04:38:40;;;;;;;7.43;6.67;;;19.40;81.90;;;;;;5018945;28;20042;-69
2022/08/17 04:43:54;;;;;;;7.13;6.20;;;19.40;82.40;;;;;;5017755;28;20060;-69
2022/08/17 04:46:28;;;;;;;8.15;5.95;;;19.40;82.40;;;;;;5011788;28;20052;-69
2022/08/17 04:48:55;;;;;;;7.63;5.90;;;19.40;82.80;;;;;;5017007;28;20038;-70
2022/08/17 04:51:30;;;;;;;7.15;6.15;;;19.40;83.20;;;;;;5016380;28;20541;-70
2022/08/17 04:53:58;;;;;;;8.25;6.55;;;19.30;84.40;;;;;;5010950;28;20487;-69
2022/08/17 04:56:25;;;;;;;10.50;6.32;;;19.30;84.30;;;;;;5010355;28;20057;-69
2022/08/17 04:58:52;;;;;;;8.85;6.43;;;19.30;84.60;;;;;;5009364;28;20060;-70
2022/08/17 05:01:19;;;;;;;7.30;6.20;;;19.40;84.20;;;;;;5000742;28;20049;-72
2022/08/17 05:03:44;;;;;;;11.70;6.20;;;19.40;83.50;;;;;;5009930;28;20041;-70
2022/08/17 05:06:10;;;;;;;8.70;6.40;;;19.50;83.50;;;;;;5002333;28;20038;-70
2022/08/17 05:08:36;;;;;;;7.85;6.35;;;19.50;83.00;;;;;;5039963;28;20041;-71
2022/08/17 05:11:02;;;;;;;9.30;6.88;;;19.60;83.10;;;;;;5010649;28;20042;-71
2022/08/17 05:13:30;;;;;;;9.35;5.85;;;19.70;82.80;;;;;;4995711;28;20137;-70
2022/08/17 05:15:58;;;;;;;8.13;6.00;;;19.70;82.70;;;;;;4994476;28;20122;-70
2022/08/17 05:18:24;;;;;;;11.35;6.90;;;19.80;82.50;;;;;;5021827;28;20050;-71
2022/08/17 05:20:50;;;;;;;10.90;6.88;;;19.70;83.20;;;;;;5045674;28;20065;-70
2022/08/17 05:23:17;;;;;;;10.45;6.90;;;19.60;83.90;;;;;;5001954;28;20050;-71
2022/08/17 05:25:44;;;;;;;7.90;6.35;;;19.50;84.00;;;;;;5015254;28;20062;-71
2022/08/17 05:28:10;;;;;;;7.37;6.20;;;19.50;83.90;;;;;;4999221;28;20048;-71
2022/08/17 05:30:37;;;;;;;9.65;6.65;;;19.60;84.00;;;;;;4995837;28;20133;-71
2022/08/17 05:33:09;;;;;;;11.70;6.90;;;19.60;83.40;;;;;;4995039;28;20104;-71
2022/08/17 05:35:36;;;;;;;10.60;6.95;;;19.60;83.40;;;;;;5015898;28;20045;-70
2022/08/17 05:38:07;;;;;;;8.68;7.20;;;19.70;83.00;;;;;;5016778;28;20049;-71
2022/08/17 05:40:33;;;;;;;10.15;7.18;;;19.70;83.70;;;;;;4995098;28;20077;-71
2022/08/17 05:43:13;;;;;;;11.07;7.75;;;19.70;83.40;;;;;;5013727;28;20111;-71
2022/08/17 05:45:44;;;;;;;11.80;7.30;;;19.80;83.50;;;;;;5056011;28;20061;-71
2022/08/17 05:48:09;;;;;;;11.50;6.65;;;19.80;83.40;;;;;;5009992;28;20518;-70
2022/08/17 05:50:55;;;;;;;10.55;7.18;;;19.90;83.20;;;;;;5015677;28;20049;-70
2022/08/17 05:53:38;;;;;;;10.30;7.40;;;19.90;82.90;;;;;;5009150;28;20050;-71
2022/08/17 05:56:15;;;;;;;10.20;6.60;;;20.00;82.20;;;;;;5013214;28;20045;-71
2022/08/17 05:59:16;;;;;;;9.48;7.35;;;20.00;82.30;;;;;;5010861;28;20107;-72
2022/08/17 06:02:13;;;;;;;8.45;7.03;;;20.00;82.40;;;;;;5004509;28;20057;-71
2022/08/17 06:05:02;;;;;;;7.97;6.78;;;20.10;82.80;;;;;;5017402;28;20052;-72
2022/08/17 06:07:49;;;;;;;10.63;6.53;;;20.20;82.50;;;;;;5015254;28;20489;-71
2022/08/17 06:10:42;;;;;;;14.07;7.47;;;20.30;82.20;;;;;;5024166;28;20049;-72
2022/08/17 06:13:26;;;;;;;10.07;7.45;;;20.30;81.80;;;;;;5008533;28;20053;-72
2022/08/17 06:15:57;;;;;;;8.70;7.20;;;20.40;81.80;;;;;;5058324;28;20051;-72
2022/08/17 06:18:25;;;;;;;11.25;7.57;;;20.30;81.70;;;;;;5014149;28;20371;-71
2022/08/17 06:20:53;;;;;;;10.88;7.70;;;20.30;81.70;;;;;;4983081;28;20442;-71
2022/08/17 06:23:29;;;;;;;11.32;7.40;;;20.40;81.20;;;;;;5016125;28;20378;-72
2022/08/17 06:25:57;;;;;;;8.27;6.30;;;20.40;81.20;;;;;;4996508;28;20065;-72
2022/08/17 06:28:26;;;;;;;;;;;20.50;81.30;;;;;;5045884;28;20037;-71
2022/08/17 06:30:57;;;;;;;11.85;7.38;;;20.60;80.80;;;;;;5044460;28;19917;-72
2022/08/17 06:33:27;;;;;;;11.60;7.90;;;20.70;81.00;;;;;;5015235;28;20392;-71
2022/08/17 06:36:22;;;;;;;10.68;8.48;;;20.80;81.20;;;;;;5020979;28;20053;-71
2022/08/17 06:39:26;;;;;;;7.43;6.72;;;20.80;82.10;;;;;;5007533;28;20459;-71
2022/08/17 06:42:21;;;;;;;10.15;7.25;;;20.90;82.00;;;;;;5020360;28;20056;-71
2022/08/17 06:45:22;;;;;;;9.85;7.30;;;21.00;81.80;;;;;;5025805;28;20073;-73
2022/08/17 06:47:52;;;;;;;11.82;8.18;;;21.10;81.10;;;;;;5017773;28;20440;-71
2022/08/17 06:50:29;;;;;;;9.80;8.45;;;21.20;80.90;;;;;;5012027;28;20050;-71
2022/08/17 06:53:03;;;;;;;10.25;8.90;;;21.20;80.70;;;;;;5027010;28;20081;-72
2022/08/17 06:55:43;;;;;;;9.77;8.10;;;21.30;80.60;;;;;;5009509;28;20129;-70
2022/08/17 06:58:10;;;;;;;11.30;8.52;;;21.40;80.60;;;;;;5032370;28;20045;-70
2022/08/17 07:00:40;;;;;;;9.02;8.13;;;21.40;80.40;;;;;;5008645;28;20050;-70
2022/08/17 07:03:10;;;;;;;9.23;7.82;;;21.50;80.50;;;;;;5013058;28;20041;-70
2022/08/17 07:05:51;;;;;;;10.40;7.10;;;21.50;80.50;;;;;;5013514;28;20045;-70
2022/08/17 07:08:49;;;;;;;10.98;8.00;;;21.50;80.80;;;;;;5022104;28;20383;-70
2022/08/17 07:11:36;;;;;;;;;;;21.60;80.90;;;;;;5008719;28;20052;-70
2022/08/17 07:14:17;;;;;;;10.33;8.80;;;21.70;80.50;;;;;;5013674;28;19914;-67
2022/08/17 07:16:50;;;;;;;13.82;9.52;;;21.80;80.40;;;;;;5009344;28;20141;-68
2022/08/17 07:19:17;;;;;;;10.98;9.18;;;21.90;80.20;;;;;;5011674;28;20076;-66
2022/08/17 07:21:47;;;;;;;13.77;9.50;;;22.00;80.50;;;;;;4995125;28;20045;-64
2022/08/17 07:24:12;;;;;;;11.15;8.32;;;22.10;80.10;;;;;;5008960;28;20045;-66
2022/08/17 07:26:38;;;;;;;11.98;9.43;;;22.20;79.50;;;;;;5011069;28;20116;-66
2022/08/17 07:29:04;;;;;;;12.93;8.88;;;22.30;79.40;;;;;;5041510;28;20060;-66
2022/08/17 07:31:32;;;;;;;10.80;8.65;;;22.30;78.90;;;;;;4994110;28;20049;-66
2022/08/17 07:34:01;;;;;;;11.05;8.50;;;22.40;78.90;;;;;;5011123;28;20041;-66
2022/08/17 07:36:32;;;;;;;9.30;8.40;;;22.50;78.30;;;;;;5008468;28;20103;-67
2022/08/17 07:38:58;;;;;;;10.43;7.90;;;22.60;78.60;;;;;;5014191;28;20038;-66
2022/08/17 07:41:24;;;;;;;12.43;8.18;;;22.70;78.20;;;;;;4991433;28;20562;-69
2022/08/17 07:43:51;;;;;;;9.40;8.25;;;22.80;78.20;;;;;;5015240;28;20050;-69
2022/08/17 07:49:39;;;;;;;12.88;7.28;;;22.90;77.60;;;;;;5012971;28;20084;-70
2022/08/17 07:52:10;;;;;;;12.48;8.73;;;23.00;77.40;;;;;;4998573;28;20049;-71
2022/08/17 07:54:38;;;;;;;12.30;8.55;;;23.00;77.40;;;;;;5011982;28;20519;-70
2022/08/17 07:57:16;;;;;;;9.95;8.20;;;23.10;77.70;;;;;;5022020;28;20073;-70
2022/08/17 08:00:02;;;;;;;10.52;7.82;;;23.20;77.30;;;;;;5019137;28;20399;-70
2022/08/17 08:02:59;;;;;;;8.57;7.75;;;23.30;77.10;;;;;;5020573;28;20128;-71
2022/08/17 08:05:27;;;;;;;8.57;6.75;;;23.40;76.90;;;;;;5012858;28;20479;-70
2022/08/17 08:08:26;;;;;;;9.43;7.22;;;23.40;76.60;;;;;;5007216;28;20049;-71
2022/08/17 08:11:06;;;;;;;8.55;7.20;;;23.50;76.50;;;;;;5006066;28;20050;-71
2022/08/17 08:13:32;;;;;;;9.35;6.82;;;23.60;76.30;;;;;;5060162;28;20068;-70
2022/08/17 08:16:18;;;;;;;10.20;7.03;;;23.70;76.40;;;;;;5017637;28;20468;-69
2022/08/17 08:18:46;;;;;;;12.75;6.80;;;23.80;76.00;;;;;;5017935;28;20096;-69
2022/08/17 08:21:23;;;;;;;11.57;6.80;;;23.90;75.50;;;;;;5024795;28;20053;-71
2022/08/17 08:24:12;;;;;;;8.85;6.57;;;24.00;74.90;;;;;;5015923;28;20388;-71
2022/08/17 08:27:05;;;;;;;8.80;6.57;;;24.00;74.20;;;;;;5044815;28;20058;-71
2022/08/17 08:29:59;;;;;;;7.68;5.85;;;24.10;74.20;;;;;;5018300;28;20053;-70
2022/08/17 08:32:59;;;;;;;12.43;6.53;;;24.10;73.60;;;;;;5024596;28;20046;-69
2022/08/17 08:35:30;;;;;;;7.13;5.07;;;24.20;72.70;;;;;;5039957;28;20570;-70
2022/08/17 08:38:22;;;;;;;7.15;5.35;;;24.30;72.40;;;;;;5041159;28;20088;-69
2022/08/17 08:41:07;;;;;;;7.20;5.80;;;24.40;72.30;;;;;;5005714;28;20053;-72
2022/08/17 08:43:35;;;;;;;7.63;5.50;;;24.40;71.20;;;;;;5022691;28;20460;-70
2022/08/17 08:46:10;;;;;;;6.80;5.57;;;24.50;70.40;;;;;;5024108;28;20042;-71
2022/08/17 08:49:00;;;;;;;9.48;5.10;;;24.60;71.40;;;;;;5012216;28;20259;-70
2022/08/17 08:51:50;;;;;;;9.15;4.45;;;24.70;69.70;;;;;;5003293;28;20479;-69
2022/08/17 08:54:44;;;;;;;7.93;4.15;;;24.90;69.10;;;;;;5024011;28;20084;-69
2022/08/17 08:57:10;;;;;;;9.23;4.10;;;25.00;68.00;;;;;;5013182;28;20059;-70
2022/08/17 08:59:39;;;;;;;7.65;4.28;;;25.20;66.60;;;;;;5059886;28;20041;-71
2022/08/17 09:02:14;;;;;;;7.63;4.22;;;25.30;65.10;;;;;;5014425;28;20414;-70
2022/08/17 09:05:06;;;;;;;12.43;4.03;;;25.40;65.30;;;;;;4994967;28;20045;-70
2022/08/17 09:07:57;;;;;;;4.35;3.33;;;25.50;62.70;;;;;;5003424;28;20042;-69
2022/08/17 09:10:28;;;;;;;8.00;3.55;;;25.60;62.60;;;;;;5007013;28;20107;-69
2022/08/17 09:13:20;;;;;;;8.60;3.90;;;25.60;63.30;;;;;;5023682;28;20095;-69
2022/08/17 09:15:49;;;;;;;8.23;3.75;;;25.70;61.50;;;;;;5012707;28;20514;-70
2022/08/17 09:18:22;;;;;;;4.93;3.65;;;25.80;64.10;;;;;;4995085;28;20046;-70
2022/08/17 09:20:56;;;;;;;6.65;4.15;;;25.90;63.70;;;;;;5016196;28;20133;-70
2022/08/17 09:23:35;;;;;;;7.97;3.80;;;26.00;62.40;;;;;;5016251;28;20494;-70
2022/08/17 09:26:24;;;;;;;9.95;3.72;;;26.10;62.10;;;;;;5020471;28;20061;-70
2022/08/17 09:29:00;;;;;;;8.15;3.97;;;26.10;60.90;;;;;;5007545;28;20044;-69
2022/08/17 09:31:34;;;;;;;6.28;4.25;;;26.20;62.50;;;;;;5014789;28;20123;-70
2022/08/17 09:34:03;;;;;;;4.53;3.35;;;26.20;60.00;;;;;;5019710;28;20345;-69
2022/08/17 09:36:33;;;;;;;5.82;3.13;;;26.20;61.20;;;;;;5046199;28;20045;-69
2022/08/17 09:39:06;;;;;;;6.80;3.10;;;26.30;60.70;;;;;;5001787;28;20084;-71
2022/08/17 09:42:28;;;;;;;10.45;3.20;;;26.30;58.90;;;;;;5015191;28;20365;-69
2022/08/17 09:45:08;;;;;;;6.47;3.75;;;26.50;58.50;;;;;;4983045;28;20514;-70
2022/08/17 09:47:45;;;;;;;7.68;3.53;;;26.60;59.70;;;;;;4993436;28;20203;-70
2022/08/17 09:50:26;;;;;;;6.78;3.75;;;26.70;59.00;;;;;;5003597;28;20115;-70
2022/08/17 09:52:54;;;;;;;4.65;2.75;;;26.70;58.90;;;;;;4996888;28;20052;-71
2022/08/17 09:55:21;;;;;;;9.52;2.90;;;26.90;57.00;;;;;;5045823;28;20045;-69
2022/08/17 09:57:56;;;;;;;6.53;3.08;;;26.90;57.90;;;;;;5021124;28;20119;-70
2022/08/17 10:00:26;;;;;;;5.18;2.90;;;26.90;57.50;;;;;;5015751;28;20503;-69
2022/08/17 10:03:04;;;;;;;5.10;3.38;;;27.00;58.30;;;;;;5009433;28;20073;-69
2022/08/17 10:05:51;;;;;;;5.10;2.97;;;27.20;56.20;;;;;;5016564;28;20046;-69
2022/08/17 10:08:24;;;;;;;4.63;2.78;;;27.30;52.60;;;;;;4993392;28;20164;-69
2022/08/17 10:11:04;;;;;;;7.70;3.47;;;27.30;55.10;;;;;;5011400;28;20052;-69
2022/08/17 10:13:40;;;;;;;4.63;3.15;;;27.40;53.80;;;;;;5041608;28;20057;-70
2022/08/17 10:16:28;;;;;;;6.40;2.90;;;27.40;54.50;;;;;;5015475;28;20041;-70
2022/08/17 10:19:03;;;;;;;9.77;3.13;;;27.60;55.80;;;;;;5014587;28;20759;-69
2022/08/17 10:27:28;;;;;;;4.97;2.90;;;28.10;55.00;;;;;;5040845;28;20064;-69
2022/08/17 10:29:58;;;;;;;5.45;3.03;;;28.20;54.00;;;;;;5012453;28;20064;-70
2022/08/17 10:32:37;;;;;;;7.63;2.97;;;28.20;54.20;;;;;;5018500;28;20132;-70
2022/08/17 10:35:11;;;;;;;7.63;3.30;;;28.20;52.80;;;;;;5022315;28;20046;-70
2022/08/17 10:38:01;;;;;;;6.20;3.05;;;28.30;52.00;;;;;;5000297;28;20554;-71
2022/08/17 10:40:46;;;;;;;5.43;2.85;;;28.40;52.60;;;;;;5002541;28;20077;-69
2022/08/17 10:43:26;;;;;;;5.97;3.00;;;28.50;53.40;;;;;;5015523;28;20056;-70
2022/08/17 10:46:12;;;;;;;11.35;3.65;;;28.60;52.50;;;;;;5036068;28;20435;-70
2022/08/17 10:48:39;;;;;;;9.48;3.25;;;28.60;53.00;;;;;;4992716;28;20115;-70
2022/08/17 10:51:09;;;;;;;4.32;3.08;;;28.60;51.10;;;;;;4992145;28;20061;-70
2022/08/17 10:53:35;;;;;;;8.50;2.80;;;28.60;51.20;;;;;;5041948;28;20049;-69
2022/08/17 10:56:13;;;;;;;7.80;2.88;;;28.60;50.30;;;;;;5018841;28;20042;-71
2022/08/17 10:58:56;;;;;;;5.80;2.90;;;28.80;50.60;;;;;;5009873;28;20471;-70
2022/08/17 11:01:31;;;;;;;5.82;2.80;;;29.00;50.10;;;;;;5037905;28;20096;-70
2022/08/17 11:04:00;;;;;;;5.32;2.70;;;29.10;50.80;;;;;;5009015;28;20056;-70
2022/08/17 11:06:37;;;;;;;7.00;2.63;;;29.20;51.10;;;;;;5038817;28;20057;-71
2022/08/17 11:09:22;;;;;;;5.60;2.80;;;29.30;48.80;;;;;;5021133;28;20041;-70
2022/08/17 11:12:19;;;;;;;5.45;2.40;;;29.40;50.20;;;;;;5008332;28;20052;-71
2022/08/17 11:14:54;;;;;;;4.10;2.30;;;29.60;50.10;;;;;;5014551;28;20515;-70
2022/08/17 11:17:43;;;;;;;4.95;2.50;;;29.80;50.10;;;;;;5018751;28;20618;-71
2022/08/17 11:20:30;;;;;;;9.30;2.58;;;30.00;50.20;;;;;;5008681;28;20093;-70
2022/08/17 11:23:15;;;;;;;;;;;30.10;48.00;;;;;;5009207;28;20042;-70
2022/08/17 11:25:50;;;;;;;5.57;2.90;;;30.20;49.50;;;;;;5021022;28;19932;-71
2022/08/17 11:28:23;;;;;;;5.30;2.40;;;30.40;49.80;;;;;;5025774;28;20046;-70
2022/08/17 11:31:08;;;;;;;3.45;2.40;;;30.50;47.30;;;;;;5043643;28;20041;-69
2022/08/17 11:33:34;;;;;;;4.25;2.45;;;30.50;48.10;;;;;;5009665;28;20532;-70
2022/08/17 11:36:22;;;;;;;8.05;3.03;;;30.60;46.60;;;;;;5002359;28;20144;-69
2022/08/17 11:39:04;;;;;;;6.20;2.38;;;30.60;45.90;;;;;;5009365;28;20129;-71
2022/08/17 11:41:39;;;;;;;5.35;2.30;;;30.60;44.30;;;;;;5035988;28;20044;-70
2022/08/17 11:44:26;;;;;;;5.97;2.60;;;30.50;44.70;;;;;;5014390;28;20121;-71
2022/08/17 11:52:54;;;;;;;4.15;2.30;;;30.90;44.40;;;;;;5009944;28;20056;-71
2022/08/17 11:55:33;;;;;;;9.73;2.60;;;30.90;45.10;;;;;;4998572;28;20504;-71
2022/08/17 11:58:01;;;;;;;5.53;2.33;;;31.10;46.60;;;;;;5010353;28;20046;-70
2022/08/17 12:00:50;;;;;;;7.60;2.42;;;31.00;42.60;;;;;;5011016;28;20129;-69
2022/08/17 12:03:23;;;;;;;5.20;2.20;;;30.90;42.70;;;;;;4975814;28;20041;-69
2022/08/17 12:05:49;;;;;;;5.65;2.22;;;30.90;41.30;;;;;;5018918;28;20037;-72
2022/08/17 12:08:20;;;;;;;6.45;2.30;;;31.00;42.80;;;;;;5019775;28;20042;-70
2022/08/17 12:11:10;;;;;;;3.40;1.80;;;31.10;42.00;;;;;;4998313;28;20517;-68
2022/08/17 12:13:48;;;;;;;5.43;2.38;;;31.10;42.50;;;;;;5011002;28;20118;-70
2022/08/17 12:16:18;;;;;;;11.23;2.10;;;31.40;43.60;;;;;;4966325;28;20431;-72
2022/08/17 12:18:49;;;;;;;4.07;2.70;;;31.50;42.00;;;;;;4994549;28;20546;-69
2022/08/17 12:21:41;;;;;;;3.95;2.03;;;31.50;42.90;;;;;;5007627;28;20050;-70
2022/08/17 12:24:37;;;;;;;6.55;1.90;;;31.70;42.60;;;;;;4993966;28;20038;-71
2022/08/17 12:27:04;;;;;;;7.63;2.25;;;31.80;43.70;;;;;;5012551;28;20060;-69
2022/08/17 12:29:30;;;;;;;7.38;2.05;;;31.90;41.90;;;;;;4991731;28;20046;-70
2022/08/17 12:31:56;;;;;;;3.90;2.00;;;32.10;43.50;;;;;;5007688;28;20042;-70
2022/08/17 12:34:37;;;;;;;7.30;2.20;;;32.10;40.60;;;;;;5013903;28;20798;-69
2022/08/17 12:37:15;;;;;;;5.03;2.08;;;32.10;41.80;;;;;;5016545;28;20412;-70
2022/08/17 12:39:59;;;;;;;;;;;32.10;39.10;;;;;;5017601;28;20053;-71
2022/08/17 12:42:30;;;;;;;2.40;1.90;;;32.10;40.10;;;;;;5011638;28;19913;-70
2022/08/17 12:44:56;;;;;;;6.45;2.28;;;32.30;39.70;;;;;;5022115;28;20471;-70
2022/08/17 12:47:22;;;;;;;5.22;2.15;;;32.50;40.40;;;;;;4991426;28;20107;-70
2022/08/17 12:49:49;;;;;;;7.47;2.40;;;32.50;40.40;;;;;;5046713;28;20053;-70
2022/08/17 12:52:25;;;;;;;6.75;2.38;;;32.70;41.70;;;;;;5014128;28;20056;-70
2022/08/17 12:54:54;;;;;;;8.52;2.17;;;32.90;40.70;;;;;;4995073;28;20459;-71
2022/08/17 12:57:41;;;;;;;3.75;2.08;;;32.70;39.90;;;;;;5029299;28;20139;-69
2022/08/17 13:00:20;;;;;;;5.75;2.08;;;32.70;40.80;;;;;;5039950;28;20345;-71
2022/08/17 13:02:49;;;;;;;4.70;2.00;;;32.50;40.50;;;;;;5018285;28;20041;-71
2022/08/17 13:05:21;;;;;;;5.10;2.10;;;32.50;38.10;;;;;;5010707;28;20052;-70
2022/08/17 13:07:51;;;;;;;3.17;2.05;;;32.40;39.70;;;;;;5018124;28;20054;-71
2022/08/17 13:10:37;;;;;;;5.88;2.13;;;32.30;39.40;;;;;;5012746;28;20613;-71
2022/08/17 13:13:18;;;;;;;4.53;1.92;;;32.30;41.10;;;;;;5014852;28;20077;-71
2022/08/17 13:15:53;;;;;;;3.67;2.20;;;32.10;39.00;;;;;;5014007;28;20053;-72
2022/08/17 13:18:48;;;;;;;5.32;2.08;;;31.90;40.40;;;;;;5012708;28;20057;-71
2022/08/17 13:21:22;;;;;;;3.58;2.15;;;31.90;41.00;;;;;;5022325;28;20052;-70
2022/08/17 13:23:55;;;;;;;5.03;2.25;;;31.80;40.60;;;;;;5016833;28;20042;-71
2022/08/17 13:26:41;;;;;;;5.47;2.20;;;31.70;40.40;;;;;;5010433;28;20060;-72
2022/08/17 13:29:24;;;;;;;4.88;2.17;;;31.70;40.80;;;;;;5011755;28;20108;-70
2022/08/17 13:32:14;;;;;;;5.05;2.17;;;31.60;41.10;;;;;;5009816;28;20054;-71
2022/08/17 13:34:47;;;;;;;3.53;2.10;;;31.40;40.30;;;;;;5016786;28;20405;-71
2022/08/17 13:37:28;;;;;;;4.60;2.33;;;31.40;40.80;;;;;;5011609;28;20111;-71
2022/08/17 13:40:03;;;;;;;4.40;2.15;;;31.70;41.10;;;;;;5012793;28;20046;-71
2022/08/17 13:42:31;;;;;;;4.22;2.17;;;31.90;40.60;;;;;;5013654;28;20037;-70
2022/08/17 13:44:56;;;;;;;4.30;2.20;;;32.00;40.00;;;;;;4993212;28;20575;-71